Gustavus Airport
PAGS : now visible

Airfield :











YOU CAN JOIN US ON...

 
LOGIN :

Register | Disclaimer

   EN    FR    IT 

 









Legend :    VFR   Marginal VFR   IFR   Intensive IFR   Very Intensive IFR
Visi :
Ceiling :
>= 8 km
>= 3000ft
5 to 8 km
1000 to 3000 ft
1500m to 5 km
500 to 1000 ft
800 to 1500m
200 to 500 ft
< 800m
< 200 ft
Symbols :   Thunderstorms  Fog  Heavy snow  Heavy precipitations  Wind > 20 kt






- Airport Elevation : 35 ft
- IATA code : GST


PAGS - Gustavus

CURRENT METAR :
  • 250256Z AUTO 10004KT 10SM OVC027 14/13 A3007 RMK AO2 RAE41 SLPNO P0000 60005 T01390128 53006

EXPIRED METARs :
  • 250231Z AUTO 13006KT 10SM -RA FEW006 OVC029 14/13 A3007 RMK AO2 P0000
  • 250216Z AUTO 16003KT 10SM SCT008 OVC031 14/13 A3007 RMK AO2 RAE15 P0000
  • 250209Z AUTO 00000KT 9SM -RA BKN008 OVC033 13/13 A3006 RMK AO2 CIG 005V010 P0000
  • 250156Z AUTO 12004KT 6SM -RA BR FEW008 OVC033 14/13 A3006 RMK AO2 SLPNO P0002 T01390128
  • 250109Z AUTO 15006KT 5SM -RA BR FEW007 OVC031 13/13 A3005 RMK AO2 P0001
  • 250056Z AUTO 14005KT 5SM -RA BR FEW007 SCT018 OVC029 13/13 A3005 RMK AO2 SLPNO P0003 T01330128

TAF PAGS
Valid from the 25 at 00:00 until the 26 at 00:00 UTC


250019Z 2500/2524 15005KT 2SM -RA BR OVC025
FM251000 VRB05KT 4SM BR VCSH FEW005 OVC020 AMD LTD TO CLD VIS AND WIND
PAZA FIR / North America



MET'MAP, your aeronautical weather chart ! - Copyright ORBIFLY December 2007 - Disclaimer

ORBIFLY MET'MAP TEAM :

Programming & Development : Alexandra Zaïnal
Concept & original design : Baudouin d'Aumeries
Assistance for programming : Marc-Olivier Méhu
Technical & hardware support : Manuel Goepfert

Contact : metmap@orbifly.com




SOURCES & CREDITS :

   NOAA       Earth
Advisory